createdAt,value
2018-10-18T00:02:26.849Z,56.13
2018-10-18T00:04:55.496Z,56.17
2018-10-18T00:07:24.240Z,47.43
2018-10-18T00:09:52.880Z,46.80
2018-10-18T00:12:21.782Z,56.10
2018-10-18T00:14:50.508Z,41.03
2018-10-18T00:17:53.477Z,49.23
2018-10-18T00:20:22.124Z,45.10
2018-10-18T00:22:50.755Z,52.37
2018-10-18T00:25:19.444Z,46.23
2018-10-18T00:27:48.082Z,43.93
2018-10-18T00:30:16.875Z,43.83
2018-10-18T00:32:45.657Z,42.53
2018-10-18T00:35:14.309Z,46.50
2018-10-18T00:37:42.948Z,47.03
2018-10-18T00:40:12.393Z,43.67
2018-10-18T00:42:41.454Z,50.63
2018-10-18T00:45:10.723Z,41.80
2018-10-18T00:47:39.465Z,45.63
2018-10-18T00:50:09.659Z,50.13
2018-10-18T00:52:38.244Z,42.57
2018-10-18T00:55:07.559Z,49.00
2018-10-18T00:57:36.197Z,45.90
2018-10-18T01:00:05.329Z,47.83
2018-10-18T01:02:34.077Z,48.37
2018-10-18T01:05:02.761Z,46.17
2018-10-18T01:07:31.419Z,44.50
2018-10-18T01:10:00.060Z,41.90
2018-10-18T01:12:28.819Z,48.60
2018-10-18T01:14:57.348Z,38.13
2018-10-18T01:17:25.482Z,41.07
2018-10-18T01:19:54.144Z,47.03
2018-10-18T01:22:22.784Z,44.10
2018-10-18T01:24:51.420Z,56.57
2018-10-18T01:27:20.109Z,42.33
2018-10-18T01:29:48.805Z,46.87
2018-10-18T01:32:17.467Z,47.20
2018-10-18T01:34:46.072Z,41.53
2018-10-18T01:37:14.676Z,43.83
2018-10-18T01:39:43.313Z,39.07
2018-10-18T01:42:12.048Z,42.40
2018-10-18T01:44:40.685Z,43.30
2018-10-18T01:47:09.333Z,45.37
2018-10-18T01:49:38.025Z,45.70
2018-10-18T01:52:06.718Z,42.67
2018-10-18T01:54:35.328Z,45.10
2018-10-18T01:57:03.990Z,41.40
2018-10-18T01:59:32.620Z,50.23
2018-10-18T02:02:01.312Z,48.47
2018-10-18T02:04:30.022Z,43.93
2018-10-18T02:06:58.653Z,46.87
2018-10-18T02:09:27.358Z,47.53
2018-10-18T02:11:56.019Z,41.03
2018-10-18T02:14:24.660Z,48.00
2018-10-18T02:16:53.252Z,46.10
2018-10-18T02:19:22.042Z,50.53
2018-10-18T02:21:50.659Z,49.73
2018-10-18T02:24:19.293Z,52.20
2018-10-18T02:26:47.964Z,45.50
2018-10-18T02:29:16.580Z,48.27
2018-10-18T02:31:45.219Z,47.70
2018-10-18T02:34:13.896Z,50.10
2018-10-18T02:36:42.485Z,48.40
2018-10-18T02:39:11.286Z,46.30
2018-10-18T02:41:39.904Z,44.10
2018-10-18T02:44:08.561Z,52.20
2018-10-18T02:46:37.244Z,46.77
2018-10-18T02:49:05.949Z,52.67
2018-10-18T02:51:34.571Z,48.70
2018-10-18T02:54:03.389Z,50.37
2018-10-18T02:56:31.909Z,49.90
2018-10-18T02:59:00.577Z,51.60
2018-10-18T03:01:29.209Z,54.03
2018-10-18T03:03:57.825Z,53.33
2018-10-18T03:06:26.559Z,53.17
2018-10-18T03:08:55.176Z,59.70
2018-10-18T03:11:23.817Z,50.73
2018-10-18T03:13:52.532Z,50.60
2018-10-18T03:16:21.136Z,51.33
2018-10-18T03:18:49.823Z,60.33
2018-10-18T03:21:18.746Z,52.80
2018-10-18T03:23:47.352Z,51.73
2018-10-18T03:26:16.028Z,51.40
2018-10-18T03:28:44.681Z,59.37
2018-10-18T03:31:13.333Z,61.03
2018-10-18T03:33:42.009Z,56.50
2018-10-18T03:36:10.649Z,55.90
2018-10-18T03:38:39.327Z,55.43
2018-10-18T03:41:07.960Z,52.13
2018-10-18T03:43:36.629Z,58.60
2018-10-18T03:46:05.348Z,56.37
2018-10-18T03:48:34.503Z,61.63
2018-10-18T03:51:03.154Z,56.60
2018-10-18T03:53:31.789Z,62.33
2018-10-18T03:56:00.387Z,65.27
2018-10-18T03:58:29.073Z,60.20
2018-10-18T04:00:57.745Z,61.13
2018-10-18T04:03:26.400Z,64.00
2018-10-18T04:05:55.041Z,70.07
2018-10-18T04:08:23.724Z,64.60
2018-10-18T04:10:52.389Z,64.10
2018-10-18T04:13:21.121Z,66.60
2018-10-18T04:15:49.735Z,63.20
2018-10-18T04:18:18.443Z,67.83
2018-10-18T04:20:46.489Z,66.33
2018-10-18T04:23:19.313Z,60.10
2018-10-18T04:25:47.904Z,65.03
2018-10-18T04:28:16.548Z,73.03
2018-10-18T04:30:45.161Z,72.70
2018-10-18T04:33:14.028Z,72.67
2018-10-18T04:35:42.625Z,66.97
2018-10-18T04:38:11.232Z,76.30
2018-10-18T04:40:40.144Z,70.00
2018-10-18T04:43:08.876Z,71.87
2018-10-18T04:45:37.526Z,65.30
2018-10-18T04:48:06.356Z,70.23
2018-10-18T04:50:34.865Z,80.93
2018-10-18T04:53:03.613Z,68.10
2018-10-18T04:55:32.312Z,67.50
2018-10-18T04:58:01.173Z,68.23
2018-10-18T05:00:29.815Z,73.57
2018-10-18T05:02:58.484Z,80.50
2018-10-18T05:05:38.455Z,70.13
2018-10-18T05:08:07.094Z,74.03
2018-10-18T05:10:35.713Z,75.33
2018-10-18T05:13:04.544Z,77.20
2018-10-18T05:15:33.149Z,75.13
2018-10-18T05:18:01.894Z,69.90
2018-10-18T05:20:30.599Z,81.60
2018-10-18T05:22:59.255Z,65.37
2018-10-18T05:25:28.046Z,66.50
2018-10-18T05:27:56.705Z,61.50
2018-10-18T05:30:25.407Z,58.10
2018-10-18T05:32:54.044Z,63.17
2018-10-18T05:35:22.792Z,62.00
2018-10-18T05:37:51.473Z,62.57
2018-10-18T05:40:20.385Z,59.83
2018-10-18T05:42:49.364Z,55.50
2018-10-18T05:45:18.109Z,52.57
2018-10-18T05:47:46.777Z,58.80
2018-10-18T05:50:15.518Z,51.00
2018-10-18T05:52:44.129Z,49.50
2018-10-18T05:55:13.275Z,57.83
2018-10-18T05:57:42.325Z,58.70
2018-10-18T06:00:14.349Z,49.63
2018-10-18T06:02:43.081Z,52.57
2018-10-18T06:05:13.267Z,50.60
2018-10-18T06:07:42.412Z,54.27
2018-10-18T06:10:23.102Z,57.57
2018-10-18T06:12:52.226Z,50.93
2018-10-18T06:15:21.421Z,52.30
2018-10-18T06:17:50.213Z,49.93
2018-10-18T06:20:18.789Z,57.63
2018-10-18T06:22:47.505Z,52.43
2018-10-18T06:25:16.377Z,50.30
2018-10-18T06:27:45.061Z,51.40
2018-10-18T06:30:15.190Z,58.23
2018-10-18T06:32:43.993Z,49.13
2018-10-18T06:35:15.150Z,52.47
2018-10-18T06:37:43.938Z,47.03
2018-10-18T06:40:14.130Z,51.60
2018-10-18T06:42:43.043Z,43.87
2018-10-18T06:45:13.341Z,46.93
2018-10-18T06:47:42.598Z,43.60
2018-10-18T06:50:13.750Z,49.03
2018-10-18T06:52:42.808Z,44.33
2018-10-18T06:55:11.725Z,49.20
2018-10-18T06:57:41.446Z,60.60
2018-10-18T07:00:13.643Z,50.67
2018-10-18T07:02:42.831Z,47.80
2018-10-18T07:05:12.817Z,55.60
2018-10-18T07:07:42.260Z,57.93
2018-10-18T07:10:11.028Z,52.40
2018-10-18T07:12:40.224Z,50.23
2018-10-18T07:15:09.911Z,50.70
2018-10-18T07:17:39.529Z,56.80
2018-10-18T07:20:08.833Z,54.23
2018-10-18T07:22:38.305Z,59.23
2018-10-18T07:25:09.072Z,55.73
2018-10-18T07:27:38.136Z,60.17
2018-10-18T07:30:08.189Z,58.50
2018-10-18T07:32:37.009Z,58.70
2018-10-18T07:35:06.938Z,62.07
2018-10-18T07:37:36.622Z,61.40
2018-10-18T07:40:06.051Z,62.10
2018-10-18T07:42:34.816Z,59.40
2018-10-18T07:45:03.843Z,65.83
2018-10-18T07:47:32.591Z,61.10
2018-10-18T07:50:01.367Z,66.30
2018-10-18T07:52:30.253Z,68.90
2018-10-18T07:54:59.000Z,107.03
2018-10-18T07:57:27.793Z,63.10
2018-10-18T07:59:56.575Z,72.57
2018-10-18T08:02:25.324Z,73.87
2018-10-18T08:04:54.090Z,74.80
2018-10-18T08:07:22.960Z,68.63
2018-10-18T08:09:51.810Z,61.63
2018-10-18T08:12:20.601Z,69.80
2018-10-18T08:14:49.614Z,67.67
2018-10-18T08:17:18.383Z,73.07
2018-10-18T08:19:47.141Z,81.23
2018-10-18T08:22:15.977Z,78.03
2018-10-18T08:24:44.702Z,71.47
2018-10-18T08:27:13.617Z,68.10
2018-10-18T08:29:42.435Z,76.10
2018-10-18T08:32:11.225Z,69.57
2018-10-18T08:34:40.040Z,82.47
2018-10-18T08:37:08.869Z,82.57
2018-10-18T08:39:37.586Z,80.77
2018-10-18T08:42:06.468Z,85.70
2018-10-18T08:44:35.288Z,75.63
2018-10-18T08:47:04.114Z,78.77
2018-10-18T08:49:33.656Z,80.93
2018-10-18T08:52:02.466Z,78.00
2018-10-18T08:54:31.152Z,90.23
2018-10-18T08:56:59.880Z,73.67
2018-10-18T08:59:28.688Z,78.80
2018-10-18T09:01:57.514Z,81.33
2018-10-18T09:04:26.288Z,77.97
2018-10-18T09:06:55.100Z,78.13
2018-10-18T09:09:23.868Z,82.83
2018-10-18T09:11:52.577Z,76.43
2018-10-18T09:14:21.332Z,74.43
2018-10-18T09:16:50.088Z,84.37
2018-10-18T09:19:18.864Z,85.60
2018-10-18T09:21:48.788Z,82.63
2018-10-18T09:24:17.594Z,100.17
2018-10-18T09:26:46.432Z,84.93
2018-10-18T09:29:15.281Z,87.17
2018-10-18T09:31:44.053Z,88.77
2018-10-18T09:34:12.940Z,82.83
2018-10-18T09:36:41.912Z,80.93
2018-10-18T09:39:10.637Z,76.77
2018-10-18T09:41:39.344Z,83.97
2018-10-18T09:44:08.193Z,78.37
2018-10-18T09:46:37.374Z,87.70
2018-10-18T09:49:06.374Z,82.73
2018-10-18T09:51:35.206Z,97.20
2018-10-18T09:54:04.434Z,100.47
2018-10-18T09:56:34.257Z,79.60
2018-10-18T09:59:03.305Z,95.57
2018-10-18T10:01:37.361Z,93.03
2018-10-18T10:04:06.488Z,91.40
2018-10-18T10:06:35.868Z,100.13
2018-10-18T10:09:05.657Z,90.77
2018-10-18T10:11:34.485Z,90.80
2018-10-18T10:14:03.364Z,88.23
2018-10-18T10:16:32.134Z,93.10
2018-10-18T10:19:00.947Z,96.43
2018-10-18T10:21:29.650Z,91.20
2018-10-18T10:23:58.626Z,81.63
2018-10-18T10:26:27.426Z,87.03
2018-10-18T10:28:56.198Z,81.67
2018-10-18T10:31:24.971Z,86.33
2018-10-18T10:33:53.822Z,80.67
2018-10-18T10:36:22.561Z,90.77
2018-10-18T10:38:51.317Z,82.53
2018-10-18T10:41:20.080Z,82.87
2018-10-18T10:43:48.917Z,77.93
2018-10-18T10:46:17.817Z,78.40
2018-10-18T10:48:46.547Z,80.50
2018-10-18T10:51:15.398Z,86.03
2018-10-18T10:53:44.145Z,81.57
2018-10-18T10:56:12.952Z,89.43
2018-10-18T10:58:41.715Z,78.10
2018-10-18T11:01:11.891Z,82.77
2018-10-18T11:03:41.636Z,71.87
2018-10-18T11:06:10.885Z,77.30
2018-10-18T11:08:39.564Z,72.80
2018-10-18T11:11:08.737Z,78.60
2018-10-18T11:13:37.476Z,86.17
2018-10-18T11:16:06.680Z,71.80
2018-10-18T11:18:36.376Z,76.37
2018-10-18T11:21:06.240Z,79.63
2018-10-18T11:23:35.333Z,82.43
2018-10-18T11:26:04.359Z,76.30
2018-10-18T11:28:33.188Z,79.17
2018-10-18T11:31:02.081Z,77.33
2018-10-18T11:33:30.861Z,82.53
2018-10-18T11:35:59.603Z,72.33
2018-10-18T11:38:28.356Z,89.27
2018-10-18T11:40:57.126Z,75.23
2018-10-18T11:43:26.097Z,69.93
2018-10-18T11:45:54.964Z,71.93
2018-10-18T11:48:23.678Z,69.70
2018-10-18T11:50:52.424Z,68.53
2018-10-18T11:53:21.211Z,71.57
2018-10-18T11:55:50.027Z,83.33
2018-10-18T11:58:18.820Z,75.50
2018-10-18T12:00:47.580Z,84.00
2018-10-18T12:03:16.492Z,76.17
2018-10-18T12:05:45.372Z,70.00
2018-10-18T12:08:14.274Z,74.37
2018-10-18T12:10:42.973Z,72.13
2018-10-18T12:13:11.700Z,68.57
2018-10-18T12:15:40.505Z,71.90
2018-10-18T12:18:09.282Z,70.33
2018-10-18T12:20:38.460Z,71.80
2018-10-18T12:23:07.383Z,70.33
2018-10-18T12:25:36.221Z,68.07
2018-10-18T12:28:05.093Z,72.07
2018-10-18T12:30:33.897Z,76.07
2018-10-18T12:33:02.672Z,70.87
2018-10-18T12:35:31.399Z,70.17
2018-10-18T12:38:00.183Z,63.03
2018-10-18T12:40:29.151Z,71.17
2018-10-18T12:42:57.789Z,66.63
2018-10-18T12:45:26.754Z,65.40
2018-10-18T12:47:55.551Z,63.30
2018-10-18T12:50:24.459Z,64.47
2018-10-18T12:52:53.298Z,63.30
2018-10-18T12:55:22.080Z,61.53
2018-10-18T12:57:50.808Z,60.10
2018-10-18T13:00:19.734Z,57.33
2018-10-18T13:02:48.384Z,67.23
2018-10-18T13:05:17.113Z,61.90
2018-10-18T13:07:45.916Z,65.53
2018-10-18T13:10:14.689Z,63.03
2018-10-18T13:12:43.487Z,58.13
2018-10-18T13:15:12.480Z,59.00
2018-10-18T13:17:41.188Z,53.30
2018-10-18T13:20:10.811Z,54.03
2018-10-18T13:22:39.736Z,59.73
2018-10-18T13:25:09.982Z,53.27
2018-10-18T13:27:39.049Z,51.43
2018-10-18T13:30:09.327Z,57.53
2018-10-18T13:32:38.185Z,49.93
2018-10-18T13:35:07.399Z,50.33
2018-10-18T13:37:36.168Z,47.73
2018-10-18T13:40:06.225Z,42.90
2018-10-18T13:42:34.973Z,53.70
2018-10-18T13:45:04.109Z,50.87
2018-10-18T13:47:32.824Z,49.50
2018-10-18T13:50:01.686Z,50.57
2018-10-18T13:52:30.401Z,49.87
2018-10-18T13:54:59.229Z,54.60
2018-10-18T13:57:28.005Z,55.23
2018-10-18T14:00:17.583Z,47.23
2018-10-18T14:02:46.245Z,45.53
2018-10-18T14:05:15.228Z,53.23
2018-10-18T14:07:43.897Z,49.87
2018-10-18T14:10:12.817Z,49.37
2018-10-18T14:12:41.950Z,53.20
2018-10-18T14:15:10.864Z,55.30
2018-10-18T14:17:39.998Z,47.83
2018-10-18T14:20:09.100Z,49.80
2018-10-18T14:22:37.933Z,50.03
2018-10-18T14:25:06.837Z,51.20
2018-10-18T14:27:35.668Z,50.43
2018-10-18T14:30:04.980Z,49.47
2018-10-18T14:32:33.769Z,53.63
2018-10-18T14:35:02.722Z,53.30
2018-10-18T14:37:31.565Z,49.27
2018-10-18T14:40:00.396Z,49.40
2018-10-18T14:42:29.343Z,49.97
2018-10-18T14:44:58.180Z,51.57
2018-10-18T14:47:27.175Z,47.83
2018-10-18T14:49:56.126Z,48.03
2018-10-18T14:52:24.900Z,46.53
2018-10-18T14:54:54.075Z,45.03
2018-10-18T14:57:23.034Z,52.80
2018-10-18T14:59:52.710Z,41.63
2018-10-18T15:02:21.484Z,49.27
2018-10-18T15:04:50.342Z,46.07
2018-10-18T15:07:19.200Z,48.17
2018-10-18T15:09:47.989Z,43.50
2018-10-18T15:12:16.774Z,44.97
2018-10-18T15:14:45.568Z,44.50
2018-10-18T15:17:14.364Z,42.80
2018-10-18T15:19:43.122Z,46.00
2018-10-18T15:22:11.946Z,44.37
2018-10-18T15:24:40.769Z,42.27
2018-10-18T15:27:09.579Z,42.77
2018-10-18T15:29:38.346Z,46.53
2018-10-18T15:32:07.331Z,49.80
2018-10-18T15:34:36.160Z,46.00
2018-10-18T15:37:05.105Z,49.50
2018-10-18T15:39:33.894Z,48.20
2018-10-18T15:42:02.670Z,47.00
2018-10-18T15:44:31.503Z,41.70
2018-10-18T15:47:00.272Z,44.23
2018-10-18T15:49:29.149Z,51.80
2018-10-18T15:51:57.930Z,52.03
2018-10-18T15:54:26.857Z,53.43
2018-10-18T15:56:55.632Z,49.70
2018-10-18T15:59:24.444Z,49.47
2018-10-18T16:01:53.201Z,58.30
2018-10-18T16:04:22.054Z,55.47
2018-10-18T16:06:50.927Z,54.73
2018-10-18T16:09:19.709Z,57.77
2018-10-18T16:11:48.554Z,59.50
2018-10-18T16:14:17.335Z,51.40
2018-10-18T16:16:46.105Z,55.07
2018-10-18T16:19:14.873Z,58.73
2018-10-18T16:21:43.620Z,58.83
2018-10-18T16:24:12.384Z,57.13
2018-10-18T16:26:41.297Z,53.63
2018-10-18T16:29:10.160Z,50.83
2018-10-18T16:31:38.934Z,51.20
2018-10-18T16:34:07.749Z,58.00
2018-10-18T16:36:36.744Z,47.13
2018-10-18T16:39:08.317Z,52.23
2018-10-18T16:41:37.412Z,48.60
2018-10-18T16:44:06.623Z,48.70
2018-10-18T16:46:35.429Z,51.43
2018-10-18T16:49:04.366Z,50.77
2018-10-18T16:51:33.308Z,52.03
2018-10-18T16:54:02.356Z,54.47
2018-10-18T16:56:31.077Z,46.70
2018-10-18T16:58:59.981Z,52.10
2018-10-18T17:01:28.773Z,52.20
2018-10-18T17:03:57.732Z,54.07
2018-10-18T17:06:26.559Z,52.30
2018-10-18T17:08:55.381Z,55.37
2018-10-18T17:11:24.269Z,57.20
2018-10-18T17:13:53.027Z,55.53
2018-10-18T17:16:21.960Z,57.50
2018-10-18T17:18:50.869Z,51.70
2018-10-18T17:21:19.880Z,57.43
2018-10-18T17:23:48.673Z,50.37
2018-10-18T17:26:17.815Z,58.67
2018-10-18T17:28:46.646Z,55.80
2018-10-18T17:31:15.492Z,47.70
2018-10-18T17:33:44.333Z,52.17
2018-10-18T17:36:13.255Z,50.90
2018-10-18T17:38:42.025Z,48.73
2018-10-18T17:41:10.856Z,45.17
2018-10-18T17:43:39.721Z,47.77
2018-10-18T17:46:08.683Z,46.27
2018-10-18T17:48:37.501Z,48.10
2018-10-18T17:51:06.430Z,49.20
2018-10-18T17:53:35.260Z,48.20
2018-10-18T17:56:04.347Z,46.90
2018-10-18T17:58:33.140Z,59.43
2018-10-18T18:01:02.187Z,54.43
2018-10-18T18:03:31.273Z,59.43
2018-10-18T18:06:00.102Z,52.00
2018-10-18T18:08:28.980Z,55.00
2018-10-18T18:10:57.797Z,52.97
2018-10-18T18:13:26.706Z,45.37
2018-10-18T18:15:55.538Z,53.93
2018-10-18T18:18:24.340Z,52.23
2018-10-18T18:20:53.226Z,55.23
2018-10-18T18:23:22.092Z,58.07
2018-10-18T18:25:50.888Z,58.40
2018-10-18T18:28:19.687Z,52.73
2018-10-18T18:30:48.393Z,53.87
2018-10-18T18:33:17.079Z,51.07
2018-10-18T18:35:45.860Z,50.60
2018-10-18T18:38:14.649Z,46.57
2018-10-18T18:40:43.441Z,60.63
2018-10-18T18:43:12.124Z,51.90
2018-10-18T18:45:40.817Z,46.07
2018-10-18T18:48:09.748Z,53.67
2018-10-18T18:50:38.488Z,47.70
2018-10-18T18:53:07.290Z,55.50
2018-10-18T18:55:36.072Z,56.17
2018-10-18T18:58:04.821Z,49.83
2018-10-18T19:00:33.556Z,48.07
2018-10-18T19:03:02.345Z,53.17
2018-10-18T19:05:30.998Z,47.90
2018-10-18T19:07:59.678Z,52.47
2018-10-18T19:10:28.364Z,54.47
2018-10-18T19:12:57.005Z,59.60
2018-10-18T19:15:25.743Z,53.83
2018-10-18T19:17:54.450Z,57.13
2018-10-18T19:20:23.160Z,58.83
2018-10-18T19:22:51.961Z,62.47
2018-10-18T19:25:22.080Z,55.40
2018-10-18T19:27:50.822Z,59.13
2018-10-18T19:30:19.601Z,64.80
2018-10-18T19:32:48.332Z,60.33
2018-10-18T19:35:17.081Z,55.80
2018-10-18T19:37:45.772Z,56.03
2018-10-18T19:40:14.463Z,56.10
2018-10-18T19:42:43.143Z,67.10
2018-10-18T19:45:12.023Z,62.33
2018-10-18T19:47:40.799Z,60.47
2018-10-18T19:50:09.739Z,59.63
2018-10-18T19:52:38.529Z,63.10
2018-10-18T19:55:08.199Z,67.30
2018-10-18T19:57:36.900Z,65.57
2018-10-18T20:00:06.602Z,61.30
2018-10-18T20:02:35.438Z,57.30
2018-10-18T20:05:04.324Z,62.50
2018-10-18T20:07:33.085Z,72.03
2018-10-18T20:10:01.857Z,65.53
2018-10-18T20:12:30.527Z,61.97
2018-10-18T20:14:59.246Z,65.93
2018-10-18T20:17:28.065Z,70.07
2018-10-18T20:19:56.948Z,58.10
2018-10-18T20:22:25.575Z,61.20
2018-10-18T20:24:54.455Z,71.23
2018-10-18T20:27:23.067Z,63.63
2018-10-18T20:29:51.730Z,62.40
2018-10-18T20:32:20.462Z,58.60
2018-10-18T20:34:49.120Z,60.57
2018-10-18T20:37:18.004Z,72.63
2018-10-18T20:39:46.737Z,67.93
2018-10-18T20:42:15.370Z,62.33
2018-10-18T20:44:44.424Z,65.03
2018-10-18T20:47:13.216Z,72.63
2018-10-18T20:49:41.832Z,66.17
2018-10-18T20:52:10.533Z,63.40
2018-10-18T20:54:39.509Z,72.77
2018-10-18T20:57:08.251Z,63.93
2018-10-18T20:59:36.883Z,70.63
2018-10-18T21:02:05.708Z,67.53
2018-10-18T21:04:34.385Z,73.73
2018-10-18T21:07:03.077Z,69.87
2018-10-18T21:09:31.747Z,62.13
2018-10-18T21:14:27.692Z,69.53
2018-10-18T21:16:56.381Z,64.23
2018-10-18T21:19:25.068Z,68.90
2018-10-18T21:21:53.764Z,74.13
2018-10-18T21:24:23.188Z,72.30
2018-10-18T21:26:51.927Z,61.93
2018-10-18T21:29:20.632Z,65.57
2018-10-18T21:31:49.512Z,65.93
2018-10-18T21:34:18.263Z,65.97
2018-10-18T21:36:46.954Z,67.47
2018-10-18T21:39:25.492Z,64.13
2018-10-18T21:41:54.448Z,62.80
2018-10-18T21:44:24.868Z,73.73
2018-10-18T21:46:53.546Z,71.37
2018-10-18T21:49:22.345Z,70.33
2018-10-18T21:51:52.347Z,68.90
2018-10-18T21:54:21.101Z,70.83
2018-10-18T21:56:49.977Z,70.47
2018-10-18T21:59:18.662Z,65.00
2018-10-18T22:01:48.085Z,69.23
2018-10-18T22:04:17.540Z,69.13
2018-10-18T22:06:47.104Z,70.47
2018-10-18T22:09:16.260Z,62.30
2018-10-18T22:11:44.857Z,62.63
2018-10-18T22:14:13.886Z,63.27
2018-10-18T22:16:42.768Z,64.27
2018-10-18T22:19:11.452Z,68.53
2018-10-18T22:21:40.544Z,61.93
2018-10-18T22:24:10.987Z,67.67
2018-10-18T22:26:39.660Z,63.53
2018-10-18T22:29:08.462Z,62.03
2018-10-18T22:31:37.313Z,60.63
2018-10-18T22:34:06.372Z,64.70
2018-10-18T22:36:35.016Z,64.87
2018-10-18T22:39:04.965Z,62.80
2018-10-18T22:41:33.577Z,61.73
2018-10-18T22:44:02.296Z,60.93
2018-10-18T22:46:31.513Z,56.90
2018-10-18T22:49:01.168Z,63.43
2018-10-18T22:51:30.241Z,63.90
2018-10-18T22:53:58.924Z,62.23
2018-10-18T22:56:27.544Z,70.17
2018-10-18T22:58:56.221Z,57.40
2018-10-18T23:01:25.640Z,61.90
2018-10-18T23:03:54.323Z,62.67
2018-10-18T23:06:23.053Z,58.47
2018-10-18T23:08:51.693Z,63.10
2018-10-18T23:11:20.345Z,62.63
2018-10-18T23:13:48.956Z,61.47
2018-10-18T23:16:17.577Z,67.27
2018-10-18T23:18:46.575Z,67.13
2018-10-18T23:21:15.294Z,71.30
2018-10-18T23:23:44.475Z,65.50
2018-10-18T23:26:13.139Z,64.20
2018-10-18T23:28:41.773Z,68.97
2018-10-18T23:31:10.511Z,69.73
2018-10-18T23:33:39.280Z,75.73
2018-10-18T23:36:07.975Z,65.53
2018-10-18T23:38:36.685Z,70.07
2018-10-18T23:41:06.126Z,72.20
2018-10-18T23:43:34.693Z,76.63
2018-10-18T23:46:03.382Z,68.40
2018-10-18T23:48:32.017Z,68.73
2018-10-18T23:51:01.474Z,78.67
2018-10-18T23:53:30.317Z,65.47
2018-10-18T23:55:58.991Z,67.30
2018-10-18T23:58:27.683Z,71.40
